createdAt,value
2022-07-29T00:00:00.223Z,99.90
2022-07-29T00:02:29.310Z,99.90
2022-07-29T00:04:59.444Z,99.90
2022-07-29T00:07:28.358Z,99.90
2022-07-29T00:09:57.129Z,99.90
2022-07-29T00:12:27.057Z,99.90
2022-07-29T00:14:56.671Z,99.90
2022-07-29T00:17:26.124Z,99.90
2022-07-29T00:19:54.976Z,99.90
2022-07-29T00:22:25.386Z,99.90
2022-07-29T00:24:54.158Z,99.90
2022-07-29T00:27:22.932Z,99.90
2022-07-29T00:29:51.694Z,99.90
2022-07-29T00:32:20.312Z,99.90
2022-07-29T00:35:06.287Z,99.90
2022-07-29T00:37:36.692Z,99.90
2022-07-29T00:40:05.757Z,99.90
2022-07-29T00:42:44.178Z,99.90
2022-07-29T00:45:13.182Z,99.90
2022-07-29T00:47:41.997Z,99.90
2022-07-29T00:50:12.989Z,99.90
2022-07-29T00:52:44.267Z,99.90
2022-07-29T00:55:14.610Z,99.90
2022-07-29T00:57:44.931Z,99.90
2022-07-29T01:00:19.395Z,99.90
2022-07-29T01:02:50.337Z,99.90
2022-07-29T01:05:21.456Z,99.90
2022-07-29T01:07:54.895Z,99.90
2022-07-29T01:10:24.518Z,99.90
2022-07-29T01:12:54.941Z,99.90
2022-07-29T01:15:23.645Z,99.90
2022-07-29T01:17:59.488Z,99.90
2022-07-29T01:20:40.688Z,99.90
2022-07-29T01:23:42.248Z,99.90
2022-07-29T01:26:30.786Z,99.90
2022-07-29T01:29:15.038Z,99.90
2022-07-29T01:31:59.301Z,99.90
2022-07-29T01:34:35.991Z,99.90
2022-07-29T01:37:14.093Z,99.90
2022-07-29T01:39:44.324Z,99.90
2022-07-29T01:42:23.110Z,99.90
2022-07-29T01:44:59.729Z,99.90
2022-07-29T01:47:35.730Z,99.90
2022-07-29T01:50:09.692Z,99.90
2022-07-29T01:52:44.630Z,99.90
2022-07-29T01:55:17.119Z,99.90
2022-07-29T01:57:48.743Z,99.90
2022-07-29T02:00:20.125Z,99.90
2022-07-29T02:02:50.203Z,99.90
2022-07-29T02:05:22.630Z,99.90
2022-07-29T02:07:52.546Z,99.90
2022-07-29T02:10:25.820Z,99.90
2022-07-29T02:12:56.776Z,99.90
2022-07-29T02:15:28.845Z,99.90
2022-07-29T02:18:02.130Z,99.90
2022-07-29T02:20:31.756Z,99.90
2022-07-29T02:23:02.820Z,99.90
2022-07-29T02:25:36.890Z,99.90
2022-07-29T02:28:08.678Z,99.90
2022-07-29T02:30:44.183Z,99.90
2022-07-29T02:33:16.584Z,99.90
2022-07-29T02:35:47.113Z,99.90
2022-07-29T02:38:35.552Z,99.90
2022-07-29T02:41:07.883Z,99.90
2022-07-29T02:43:37.485Z,99.90
2022-07-29T02:46:29.171Z,99.90
2022-07-29T02:49:03.381Z,99.90
2022-07-29T02:51:44.734Z,99.90
2022-07-29T02:54:21.577Z,99.90
2022-07-29T02:56:53.718Z,99.90
2022-07-29T02:59:27.108Z,99.90
2022-07-29T03:01:59.953Z,99.90
2022-07-29T03:04:30.368Z,99.90
2022-07-29T03:07:00.917Z,99.90
2022-07-29T03:09:30.760Z,99.90
2022-07-29T03:11:59.804Z,99.90
2022-07-29T03:14:29.312Z,99.90
2022-07-29T03:17:00.712Z,99.90
2022-07-29T03:19:29.899Z,99.90
2022-07-29T03:21:59.815Z,99.90
2022-07-29T03:24:33.658Z,99.90
2022-07-29T03:27:03.301Z,99.90
2022-07-29T03:29:33.792Z,99.90
2022-07-29T03:32:08.709Z,99.90
2022-07-29T03:34:38.964Z,99.90
2022-07-29T03:37:08.511Z,99.90
2022-07-29T03:39:41.662Z,99.90
2022-07-29T03:42:14.176Z,99.90
2022-07-29T03:44:46.362Z,99.90
2022-07-29T03:47:19.367Z,99.90
2022-07-29T03:49:52.715Z,99.90
2022-07-29T03:52:22.020Z,99.90
2022-07-29T03:54:51.082Z,99.90
2022-07-29T03:57:22.899Z,99.90
2022-07-29T03:59:53.773Z,99.90
2022-07-29T04:02:30.159Z,99.90
2022-07-29T04:04:59.339Z,99.90
2022-07-29T04:07:28.087Z,99.90
2022-07-29T04:09:56.618Z,99.90
2022-07-29T04:12:25.544Z,99.90
2022-07-29T04:14:54.072Z,99.90
2022-07-29T04:17:25.609Z,99.90
2022-07-29T04:19:54.443Z,99.90
2022-07-29T04:22:23.059Z,99.90
2022-07-29T04:24:51.725Z,99.90
2022-07-29T04:27:20.648Z,99.90
2022-07-29T04:29:56.843Z,99.90
2022-07-29T04:32:28.496Z,99.90
2022-07-29T04:34:57.076Z,99.90
2022-07-29T04:37:26.622Z,99.90
2022-07-29T04:39:55.317Z,99.90
2022-07-29T04:42:27.416Z,99.90
2022-07-29T04:44:56.774Z,99.90
2022-07-29T04:47:25.364Z,99.90
2022-07-29T04:49:55.300Z,99.90
2022-07-29T04:52:24.584Z,99.90
2022-07-29T04:54:53.130Z,99.90
2022-07-29T04:57:21.807Z,99.90
2022-07-29T04:59:50.891Z,99.90
2022-07-29T05:02:19.434Z,99.90
2022-07-29T05:04:48.059Z,99.90
2022-07-29T05:07:18.146Z,99.90
2022-07-29T05:09:46.693Z,99.90
2022-07-29T05:12:15.388Z,99.90
2022-07-29T05:14:44.242Z,99.90
2022-07-29T05:17:12.735Z,99.90
2022-07-29T05:19:41.233Z,99.90
2022-07-29T05:22:10.109Z,99.90
2022-07-29T05:24:40.119Z,99.90
2022-07-29T05:27:08.630Z,99.90
2022-07-29T05:29:43.154Z,99.90
2022-07-29T05:32:13.756Z,99.90
2022-07-29T05:34:50.099Z,99.90
2022-07-29T05:37:19.168Z,99.90
2022-07-29T05:39:56.247Z,99.90
2022-07-29T05:42:26.422Z,99.90
2022-07-29T05:44:55.244Z,99.90
2022-07-29T05:47:24.270Z,99.90
2022-07-29T05:49:52.847Z,99.90
2022-07-29T05:52:22.909Z,99.90
2022-07-29T05:54:53.339Z,99.90
2022-07-29T05:57:23.514Z,99.90
2022-07-29T05:59:53.181Z,99.90
2022-07-29T06:02:22.029Z,99.90
2022-07-29T06:04:50.978Z,99.90
2022-07-29T06:07:19.465Z,99.90
2022-07-29T06:09:48.047Z,99.90
2022-07-29T06:12:18.201Z,99.70
2022-07-29T06:14:49.833Z,98.50
2022-07-29T06:17:20.831Z,97.80
2022-07-29T06:19:49.405Z,97.00
2022-07-29T06:22:18.262Z,96.40
2022-07-29T06:24:47.166Z,95.80
2022-07-29T06:27:17.397Z,95.20
2022-07-29T06:29:45.908Z,94.70
2022-07-29T06:32:15.426Z,94.10
2022-07-29T06:34:44.108Z,94.30
2022-07-29T06:37:18.721Z,93.80
2022-07-29T06:39:47.774Z,93.60
2022-07-29T06:42:18.102Z,93.20
2022-07-29T06:44:47.032Z,92.60
2022-07-29T06:47:15.664Z,91.90
2022-07-29T06:49:44.549Z,91.40
2022-07-29T06:52:13.277Z,91.00
2022-07-29T06:54:48.737Z,90.70
2022-07-29T06:57:18.865Z,90.30
2022-07-29T06:59:47.489Z,90.10
2022-07-29T07:02:16.787Z,89.40
2022-07-29T07:04:45.551Z,88.40
2022-07-29T07:07:14.179Z,87.60
2022-07-29T07:09:42.625Z,86.60
2022-07-29T07:12:11.566Z,85.00
2022-07-29T07:14:41.982Z,83.80
2022-07-29T07:17:10.578Z,82.60
2022-07-29T07:19:39.365Z,82.20
2022-07-29T07:22:07.925Z,81.60
2022-07-29T07:24:36.665Z,81.40
2022-07-29T07:27:05.573Z,81.10
2022-07-29T07:29:34.561Z,80.50
2022-07-29T07:32:05.176Z,79.70
2022-07-29T07:34:34.705Z,78.50
2022-07-29T07:37:03.346Z,77.70
2022-07-29T07:39:31.850Z,77.60
2022-07-29T07:42:00.657Z,77.00
2022-07-29T07:44:29.314Z,76.60
2022-07-29T07:46:57.917Z,75.50
2022-07-29T07:49:33.992Z,75.00
2022-07-29T07:52:03.090Z,75.10
2022-07-29T07:54:31.923Z,74.60
2022-07-29T07:57:01.652Z,73.90
2022-07-29T07:59:30.117Z,73.40
2022-07-29T08:01:58.941Z,73.50
2022-07-29T08:04:29.150Z,73.40
2022-07-29T08:07:00.038Z,73.20
2022-07-29T08:09:30.835Z,72.90
2022-07-29T08:12:00.259Z,72.70
2022-07-29T08:14:28.747Z,72.30
2022-07-29T08:16:57.551Z,72.30
2022-07-29T08:19:26.128Z,72.10
2022-07-29T08:21:55.125Z,71.90
2022-07-29T08:24:43.187Z,71.60
2022-07-29T08:27:33.559Z,71.40
2022-07-29T08:30:00.907Z,70.80
2022-07-29T08:32:52.674Z,68.80
2022-07-29T08:35:18.712Z,68.40
2022-07-29T08:37:47.260Z,68.10
2022-07-29T08:40:17.144Z,68.40
2022-07-29T08:42:46.039Z,68.20
2022-07-29T08:45:14.977Z,68.50
2022-07-29T08:47:43.686Z,68.70
2022-07-29T08:50:13.345Z,68.80
2022-07-29T08:52:43.139Z,67.70
2022-07-29T08:55:12.846Z,67.70
2022-07-29T08:57:50.938Z,67.90
2022-07-29T09:00:24.943Z,68.30
2022-07-29T09:02:59.769Z,68.90
2022-07-29T09:05:29.641Z,68.80
2022-07-29T09:07:58.582Z,68.60
2022-07-29T09:10:27.192Z,68.30
2022-07-29T09:12:58.341Z,68.30
2022-07-29T09:15:27.373Z,68.10
2022-07-29T09:17:56.421Z,68.00
2022-07-29T09:20:25.368Z,68.00
2022-07-29T09:22:54.552Z,67.80
2022-07-29T09:25:35.926Z,68.00
2022-07-29T09:28:10.446Z,66.50
2022-07-29T09:30:53.286Z,66.00
2022-07-29T09:33:23.362Z,65.50
2022-07-29T09:36:02.418Z,65.90
2022-07-29T09:38:33.345Z,66.30
2022-07-29T09:41:05.696Z,65.90
2022-07-29T09:43:36.923Z,65.90
2022-07-29T09:46:13.619Z,65.60
2022-07-29T09:48:42.554Z,65.20
2022-07-29T09:51:23.082Z,65.40
2022-07-29T09:53:55.720Z,65.50
2022-07-29T09:56:41.135Z,65.90
2022-07-29T09:59:12.281Z,66.60
2022-07-29T10:01:40.926Z,66.70
2022-07-29T10:04:09.577Z,66.90
2022-07-29T10:07:03.402Z,66.60
2022-07-29T10:09:33.047Z,66.70
2022-07-29T10:12:10.319Z,66.90
2022-07-29T10:14:40.794Z,66.70
2022-07-29T10:17:11.222Z,66.80
2022-07-29T10:19:41.089Z,67.00
2022-07-29T10:22:11.122Z,66.70
2022-07-29T10:24:40.794Z,66.60
2022-07-29T10:27:10.724Z,66.70
2022-07-29T10:29:40.788Z,66.20
2022-07-29T10:32:38.744Z,66.30
2022-07-29T10:35:20.579Z,66.00
2022-07-29T10:38:34.598Z,65.50
2022-07-29T10:41:32.274Z,65.50
2022-07-29T10:44:19.090Z,65.30
2022-07-29T10:46:49.826Z,65.40
2022-07-29T10:49:24.356Z,64.60
2022-07-29T10:51:59.239Z,64.40
2022-07-29T10:54:46.186Z,64.50
2022-07-29T10:57:21.563Z,64.50
2022-07-29T11:00:31.980Z,64.40
2022-07-29T11:03:04.534Z,63.80
2022-07-29T11:06:08.686Z,63.90
2022-07-29T11:08:37.827Z,63.70
2022-07-29T11:14:58.167Z,62.80
2022-07-29T11:17:26.739Z,63.30
2022-07-29T11:20:37.851Z,62.70
2022-07-29T11:23:33.459Z,62.20
2022-07-29T11:26:22.927Z,62.60
2022-07-29T11:29:04.853Z,63.00
2022-07-29T11:31:42.785Z,63.40
2022-07-29T11:34:22.684Z,63.50
2022-07-29T11:37:27.930Z,63.70
2022-07-29T11:40:18.591Z,64.10
2022-07-29T11:42:48.587Z,64.20
2022-07-29T11:48:29.686Z,64.30
2022-07-29T11:51:02.955Z,64.30
2022-07-29T11:53:33.470Z,64.30
2022-07-29T11:56:03.773Z,64.20
2022-07-29T11:58:33.363Z,64.30
2022-07-29T12:01:04.912Z,64.30
2022-07-29T12:03:36.906Z,64.40
2022-07-29T12:06:17.463Z,63.30
2022-07-29T12:08:48.610Z,62.30
2022-07-29T12:11:21.150Z,62.30
2022-07-29T12:13:50.671Z,62.20
2022-07-29T12:16:28.139Z,62.20
2022-07-29T12:18:59.860Z,62.60
2022-07-29T12:21:29.428Z,62.30
2022-07-29T12:24:08.980Z,62.00
2022-07-29T12:26:40.362Z,62.00
2022-07-29T12:29:14.084Z,62.00
2022-07-29T12:31:55.056Z,61.60
2022-07-29T12:34:30.737Z,61.40
2022-07-29T12:36:59.796Z,61.20
2022-07-29T12:39:30.393Z,60.90
2022-07-29T12:42:04.753Z,60.90
2022-07-29T12:44:47.462Z,61.00
2022-07-29T12:47:16.350Z,61.00
2022-07-29T12:49:45.267Z,61.30
2022-07-29T12:52:27.920Z,61.90
2022-07-29T12:55:00.966Z,61.50
2022-07-29T12:57:30.113Z,60.90
2022-07-29T13:00:11.171Z,60.70
2022-07-29T13:02:40.808Z,61.00
2022-07-29T13:05:10.838Z,61.10
2022-07-29T13:07:55.274Z,61.00
2022-07-29T13:10:27.598Z,60.80
2022-07-29T13:13:07.487Z,60.20
2022-07-29T13:15:37.046Z,60.20
2022-07-29T13:18:06.320Z,59.90
2022-07-29T13:20:35.193Z,59.60
2022-07-29T13:23:04.032Z,59.90
2022-07-29T13:25:35.487Z,60.10
2022-07-29T13:28:04.000Z,60.30
2022-07-29T13:30:32.747Z,60.20
2022-07-29T13:33:01.295Z,60.20
2022-07-29T13:35:30.825Z,60.20
2022-07-29T13:37:59.533Z,60.10
2022-07-29T13:40:30.222Z,60.40
2022-07-29T13:43:00.215Z,60.20
2022-07-29T13:45:29.078Z,60.20
2022-07-29T13:47:58.051Z,60.00
2022-07-29T13:50:26.599Z,60.00
2022-07-29T13:52:55.299Z,60.20
2022-07-29T13:55:23.846Z,60.40
2022-07-29T13:57:52.437Z,60.50
2022-07-29T14:00:24.638Z,60.40
2022-07-29T14:02:53.354Z,60.40
2022-07-29T14:05:22.192Z,60.20
2022-07-29T14:07:50.807Z,60.20
2022-07-29T14:10:20.311Z,60.40
2022-07-29T14:12:49.232Z,60.60
2022-07-29T14:15:18.394Z,60.10
2022-07-29T14:17:48.406Z,60.20
2022-07-29T14:20:17.719Z,60.50
2022-07-29T14:22:46.273Z,60.40
2022-07-29T14:25:15.718Z,60.10
2022-07-29T14:27:45.206Z,60.20
2022-07-29T14:30:14.525Z,60.00
2022-07-29T14:32:43.420Z,60.10
2022-07-29T14:35:13.843Z,59.90
2022-07-29T14:37:42.428Z,59.60
2022-07-29T14:40:12.920Z,59.80
2022-07-29T14:42:42.327Z,59.60
2022-07-29T14:45:12.180Z,59.50
2022-07-29T14:47:41.462Z,59.40
2022-07-29T14:50:11.304Z,59.70
2022-07-29T14:52:41.292Z,59.80
2022-07-29T14:55:19.639Z,59.80
2022-07-29T14:57:50.987Z,59.80
2022-07-29T15:00:21.369Z,59.70
2022-07-29T15:03:02.063Z,59.70
2022-07-29T15:05:31.754Z,59.70
2022-07-29T15:08:02.389Z,59.30
2022-07-29T15:10:31.580Z,59.40
2022-07-29T15:13:00.129Z,59.70
2022-07-29T15:15:29.900Z,59.70
2022-07-29T15:17:58.639Z,59.80
2022-07-29T15:20:28.183Z,60.00
2022-07-29T15:22:57.650Z,60.20
2022-07-29T15:25:28.457Z,60.20
2022-07-29T15:28:01.223Z,60.20
2022-07-29T15:30:33.261Z,60.40
2022-07-29T15:33:04.117Z,60.60
2022-07-29T15:35:33.400Z,60.60
2022-07-29T15:38:08.948Z,60.60
2022-07-29T15:40:42.310Z,60.50
2022-07-29T15:43:10.895Z,60.20
2022-07-29T15:45:40.736Z,60.40
2022-07-29T15:48:13.266Z,60.60
2022-07-29T15:50:47.154Z,60.40
2022-07-29T15:53:16.148Z,60.70
2022-07-29T15:55:46.296Z,61.00
2022-07-29T15:58:15.046Z,61.20
2022-07-29T16:00:43.825Z,61.40
2022-07-29T16:03:12.846Z,61.20
2022-07-29T16:05:41.430Z,61.20
2022-07-29T16:08:10.103Z,61.30
2022-07-29T16:10:38.965Z,61.30
2022-07-29T16:13:08.950Z,61.20
2022-07-29T16:15:37.504Z,60.90
2022-07-29T16:18:07.194Z,60.80
2022-07-29T16:20:35.819Z,61.20
2022-07-29T16:23:05.181Z,61.30
2022-07-29T16:25:58.857Z,61.50
2022-07-29T16:28:24.995Z,61.60
2022-07-29T16:30:53.963Z,61.70
2022-07-29T16:33:22.542Z,61.90
2022-07-29T16:35:51.131Z,62.00
2022-07-29T16:38:20.165Z,61.90
2022-07-29T16:40:48.738Z,61.90
2022-07-29T16:43:17.358Z,62.10
2022-07-29T16:45:47.582Z,62.10
2022-07-29T16:48:17.969Z,62.10
2022-07-29T16:50:47.043Z,62.00
2022-07-29T16:53:15.724Z,61.80
2022-07-29T16:55:44.522Z,61.80
2022-07-29T16:58:13.775Z,61.90
2022-07-29T17:00:42.824Z,62.10
2022-07-29T17:03:12.916Z,62.30
2022-07-29T17:05:50.518Z,62.50
2022-07-29T17:08:23.002Z,62.80
2022-07-29T17:10:51.992Z,63.10
2022-07-29T17:13:20.757Z,63.50
2022-07-29T17:15:49.365Z,64.00
2022-07-29T17:18:19.581Z,65.10
2022-07-29T17:20:48.102Z,64.60
2022-07-29T17:23:16.668Z,65.00
2022-07-29T17:25:45.810Z,66.00
2022-07-29T17:28:14.522Z,65.30
2022-07-29T17:30:43.169Z,65.60
2022-07-29T17:33:11.909Z,65.80
2022-07-29T17:35:59.340Z,66.10
2022-07-29T17:38:28.120Z,66.40
2022-07-29T17:40:56.747Z,66.60
2022-07-29T17:43:25.490Z,66.90
2022-07-29T17:45:59.273Z,67.10
2022-07-29T17:48:27.968Z,67.40
2022-07-29T17:50:58.264Z,67.40
2022-07-29T17:53:26.911Z,67.80
2022-07-29T17:55:56.397Z,68.00
2022-07-29T17:58:25.487Z,68.20
2022-07-29T18:00:54.386Z,68.50
2022-07-29T18:03:23.018Z,68.70
2022-07-29T18:05:51.941Z,69.00
2022-07-29T18:08:21.881Z,69.30
2022-07-29T18:10:50.579Z,69.60
2022-07-29T18:13:20.259Z,69.70
2022-07-29T18:15:48.828Z,70.00
2022-07-29T18:18:18.392Z,70.20
2022-07-29T18:20:47.572Z,70.50
2022-07-29T18:23:16.928Z,70.80
2022-07-29T18:25:46.803Z,71.00
2022-07-29T18:28:15.672Z,71.20
2022-07-29T18:30:45.126Z,71.60
2022-07-29T18:33:24.270Z,71.80
2022-07-29T18:36:10.078Z,72.00
2022-07-29T18:38:41.371Z,72.20
2022-07-29T18:41:11.637Z,72.70
2022-07-29T18:43:40.252Z,72.60
2022-07-29T18:46:08.891Z,72.80
2022-07-29T18:48:37.771Z,73.00
2022-07-29T18:51:09.480Z,73.30
2022-07-29T18:53:38.677Z,73.40
2022-07-29T18:56:07.453Z,73.50
2022-07-29T18:58:38.435Z,73.80
2022-07-29T19:01:07.046Z,74.00
2022-07-29T19:03:35.953Z,74.20
2022-07-29T19:06:04.698Z,74.40
2022-07-29T19:08:33.797Z,74.50
2022-07-29T19:11:02.570Z,74.80
2022-07-29T19:13:31.236Z,75.00
2022-07-29T19:16:01.415Z,75.30
2022-07-29T19:18:30.391Z,75.80
2022-07-29T19:20:59.022Z,76.70
2022-07-29T19:23:27.683Z,77.00
2022-07-29T19:25:56.431Z,77.60
2022-07-29T19:28:25.447Z,78.10
2022-07-29T19:30:54.281Z,78.70
2022-07-29T19:33:24.457Z,79.50
2022-07-29T19:35:54.979Z,79.80
2022-07-29T19:38:24.225Z,80.20
2022-07-29T19:40:52.811Z,80.80
2022-07-29T19:43:50.562Z,81.50
2022-07-29T19:46:10.817Z,82.20
2022-07-29T19:48:40.909Z,82.50
2022-07-29T19:51:09.639Z,83.50
2022-07-29T19:53:38.492Z,83.90
2022-07-29T19:56:09.000Z,84.60
2022-07-29T19:58:37.731Z,85.30
2022-07-29T20:01:10.590Z,85.80
2022-07-29T20:03:41.187Z,86.50
2022-07-29T20:06:10.146Z,87.20
2022-07-29T20:08:38.825Z,87.50
2022-07-29T20:11:07.775Z,87.70
2022-07-29T20:13:36.982Z,88.30
2022-07-29T20:16:13.886Z,88.70
2022-07-29T20:18:44.225Z,89.80
2022-07-29T20:21:12.969Z,90.00
2022-07-29T20:23:41.591Z,90.10
2022-07-29T20:26:10.358Z,90.30
2022-07-29T20:28:40.337Z,90.60
2022-07-29T20:31:09.244Z,90.70
2022-07-29T20:33:38.145Z,90.80
2022-07-29T20:36:08.714Z,91.10
2022-07-29T20:38:37.320Z,91.20
2022-07-29T20:41:06.279Z,91.40
2022-07-29T20:43:39.147Z,91.50
2022-07-29T20:46:08.067Z,91.70
2022-07-29T20:48:36.952Z,91.70
2022-07-29T20:51:05.683Z,91.80
2022-07-29T20:53:35.908Z,92.00
2022-07-29T20:56:04.710Z,92.10
2022-07-29T20:58:34.171Z,92.20
2022-07-29T21:01:03.124Z,92.50
2022-07-29T21:03:31.934Z,92.50
2022-07-29T21:06:00.974Z,92.70
2022-07-29T21:08:30.152Z,92.80
2022-07-29T21:11:00.356Z,92.90
2022-07-29T21:13:29.195Z,93.10
2022-07-29T21:16:03.484Z,93.20
2022-07-29T21:18:37.542Z,93.30
2022-07-29T21:21:08.302Z,93.50
2022-07-29T21:23:37.379Z,93.60
2022-07-29T21:26:12.501Z,93.90
2022-07-29T21:28:40.892Z,93.90
2022-07-29T21:31:11.189Z,94.10
2022-07-29T21:33:41.658Z,94.20
2022-07-29T21:36:44.038Z,94.30
2022-07-29T21:39:00.764Z,94.50
2022-07-29T21:41:31.038Z,94.60
2022-07-29T21:43:59.680Z,94.80
2022-07-29T21:46:30.563Z,94.90
2022-07-29T21:48:59.457Z,95.10
2022-07-29T21:51:27.947Z,95.30
2022-07-29T21:53:56.690Z,95.40
2022-07-29T21:56:27.850Z,95.50
2022-07-29T21:58:58.417Z,95.70
2022-07-29T22:01:27.280Z,95.80
2022-07-29T22:03:56.017Z,96.00
2022-07-29T22:06:24.661Z,96.10
2022-07-29T22:08:53.496Z,96.40
2022-07-29T22:11:22.130Z,96.60
2022-07-29T22:13:50.671Z,96.90
2022-07-29T22:16:20.908Z,97.10
2022-07-29T22:18:49.470Z,97.30
2022-07-29T22:21:18.590Z,97.50
2022-07-29T22:23:47.739Z,97.70
2022-07-29T22:26:16.332Z,97.80
2022-07-29T22:28:44.885Z,98.10
2022-07-29T22:31:13.617Z,98.30
2022-07-29T22:33:43.574Z,98.50
2022-07-29T22:36:12.297Z,98.70
2022-07-29T22:38:41.567Z,98.80
2022-07-29T22:41:10.151Z,99.00
2022-07-29T22:43:44.684Z,99.20
2022-07-29T22:46:13.569Z,99.50
2022-07-29T22:48:43.648Z,99.70
2022-07-29T22:51:12.444Z,99.80
2022-07-29T22:53:41.142Z,99.90
2022-07-29T22:56:09.618Z,99.90
2022-07-29T22:58:38.365Z,99.90
2022-07-29T23:01:06.930Z,99.90
2022-07-29T23:03:35.700Z,99.90
2022-07-29T23:06:06.123Z,99.90
2022-07-29T23:08:35.008Z,99.90
2022-07-29T23:11:03.601Z,99.90
2022-07-29T23:13:32.513Z,99.90
2022-07-29T23:16:02.033Z,99.90
2022-07-29T23:18:30.702Z,99.90
2022-07-29T23:20:59.602Z,99.90
2022-07-29T23:23:32.454Z,99.90
2022-07-29T23:26:01.378Z,99.90
2022-07-29T23:28:30.383Z,99.90
2022-07-29T23:30:59.075Z,99.90
2022-07-29T23:33:27.876Z,99.90
2022-07-29T23:35:56.569Z,99.90
2022-07-29T23:38:25.220Z,99.90
2022-07-29T23:40:55.443Z,99.90
2022-07-29T23:43:23.925Z,99.90
2022-07-29T23:45:53.640Z,99.90
2022-07-29T23:48:22.654Z,99.90
2022-07-29T23:50:51.094Z,99.90
2022-07-29T23:53:19.893Z,99.90
2022-07-29T23:55:48.652Z,99.90
2022-07-29T23:58:18.706Z,99.90
